createdAt,value
2023-10-23T00:01:22.243Z,-65
2023-10-23T00:03:51.827Z,-65
2023-10-23T00:06:18.678Z,-65
2023-10-23T00:08:45.341Z,-65
2023-10-23T00:11:22.883Z,-66
2023-10-23T00:13:49.559Z,-65
2023-10-23T00:16:16.211Z,-65
2023-10-23T00:18:43.128Z,-65
2023-10-23T00:21:09.810Z,-66
2023-10-23T00:23:36.626Z,-66
2023-10-23T00:26:03.387Z,-67
2023-10-23T00:28:30.000Z,-66
2023-10-23T00:30:56.722Z,-65
2023-10-23T00:33:23.504Z,-66
2023-10-23T00:35:50.258Z,-64
2023-10-23T00:38:16.888Z,-66
2023-10-23T00:40:43.697Z,-64
2023-10-23T00:43:14.061Z,-64
2023-10-23T00:45:49.972Z,-65
2023-10-23T00:48:17.515Z,-67
2023-10-23T00:50:44.221Z,-67
2023-10-23T00:53:11.284Z,-66
2023-10-23T00:55:38.014Z,-67
2023-10-23T00:58:04.778Z,-66
2023-10-23T01:00:32.040Z,-66
2023-10-23T01:02:58.737Z,-66
2023-10-23T01:05:25.382Z,-65
2023-10-23T01:07:52.101Z,-66
2023-10-23T01:10:19.262Z,-67
2023-10-23T01:12:45.906Z,-67
2023-10-23T01:15:12.559Z,-64
2023-10-23T01:17:39.219Z,-67
2023-10-23T01:20:09.694Z,-66
2023-10-23T01:22:36.402Z,-66
2023-10-23T01:25:03.316Z,-65
2023-10-23T01:27:29.970Z,-66
2023-10-23T01:29:56.609Z,-65
2023-10-23T01:32:23.242Z,-66
2023-10-23T01:34:49.866Z,-67
2023-10-23T01:37:16.515Z,-65
2023-10-23T01:39:43.278Z,-65
2023-10-23T01:42:09.951Z,-65
2023-10-23T01:44:36.683Z,-65
2023-10-23T01:47:03.428Z,-65
2023-10-23T01:49:30.186Z,-65
2023-10-23T01:51:56.924Z,-65
2023-10-23T01:54:23.654Z,-65
2023-10-23T01:56:50.729Z,-65
2023-10-23T01:59:17.430Z,-65
2023-10-23T02:01:44.365Z,-65
2023-10-23T02:04:11.363Z,-65
2023-10-23T02:06:38.331Z,-65
2023-10-23T02:09:05.437Z,-64
2023-10-23T02:11:32.401Z,-65
2023-10-23T02:14:01.419Z,-69
2023-10-23T02:16:28.090Z,-67
2023-10-23T02:18:54.843Z,-68
2023-10-23T02:21:21.590Z,-67
2023-10-23T02:23:56.221Z,-68
2023-10-23T02:26:23.626Z,-67
2023-10-23T02:28:50.224Z,-67
2023-10-23T02:31:16.923Z,-70
2023-10-23T02:33:43.750Z,-70
2023-10-23T02:36:10.420Z,-68
2023-10-23T02:38:37.079Z,-70
2023-10-23T02:41:03.829Z,-68
2023-10-23T02:43:30.535Z,-66
2023-10-23T02:46:02.335Z,-66
2023-10-23T02:48:29.392Z,-66
2023-10-23T02:50:57.190Z,-67
2023-10-23T02:53:24.386Z,-67
2023-10-23T02:55:53.828Z,-67
2023-10-23T02:58:20.730Z,-65
2023-10-23T03:00:47.408Z,-66
2023-10-23T03:03:14.462Z,-66
2023-10-23T03:05:41.154Z,-67
2023-10-23T03:08:07.782Z,-67
2023-10-23T03:10:34.758Z,-67
2023-10-23T03:13:01.480Z,-67
2023-10-23T03:15:28.217Z,-67
2023-10-23T03:17:55.165Z,-67
2023-10-23T03:20:21.793Z,-67
2023-10-23T03:22:48.407Z,-68
2023-10-23T03:25:15.030Z,-67
2023-10-23T03:27:42.832Z,-67
2023-10-23T03:30:09.914Z,-67
2023-10-23T03:32:36.706Z,-67
2023-10-23T03:35:04.568Z,-67
2023-10-23T03:37:31.329Z,-67
2023-10-23T03:39:57.996Z,-67
2023-10-23T03:42:24.679Z,-68
2023-10-23T03:44:51.422Z,-67
2023-10-23T03:47:18.066Z,-67
2023-10-23T03:49:45.148Z,-67
2023-10-23T03:52:11.825Z,-67
2023-10-23T03:54:38.640Z,-67
2023-10-23T03:57:05.430Z,-67
2023-10-23T03:59:32.102Z,-67
2023-10-23T04:01:58.823Z,-67
2023-10-23T04:04:25.635Z,-67
2023-10-23T04:06:52.455Z,-67
2023-10-23T04:09:19.127Z,-67
2023-10-23T04:11:45.859Z,-68
2023-10-23T04:14:12.509Z,-68
2023-10-23T04:16:40.450Z,-68
2023-10-23T04:19:07.127Z,-68
2023-10-23T04:21:40.366Z,-68
2023-10-23T04:24:08.501Z,-68
2023-10-23T04:26:37.799Z,-68
2023-10-23T04:29:05.654Z,-68
2023-10-23T04:31:32.331Z,-67
2023-10-23T04:33:59.048Z,-66
2023-10-23T04:36:25.766Z,-67
2023-10-23T04:38:52.396Z,-67
2023-10-23T04:41:20.897Z,-67
2023-10-23T04:43:47.557Z,-67
2023-10-23T04:46:14.498Z,-68
2023-10-23T04:48:41.187Z,-68
2023-10-23T04:51:07.839Z,-69
2023-10-23T04:53:34.421Z,-69
2023-10-23T04:56:04.860Z,-68
2023-10-23T04:58:31.569Z,-69
2023-10-23T05:00:58.316Z,-69
2023-10-23T05:03:25.132Z,-69
2023-10-23T05:05:52.721Z,-69
2023-10-23T05:08:19.433Z,-69
2023-10-23T05:10:46.076Z,-69
2023-10-23T05:13:12.688Z,-69
2023-10-23T05:15:39.331Z,-68
2023-10-23T05:18:06.088Z,-68
2023-10-23T05:20:35.310Z,-68
2023-10-23T05:23:02.059Z,-68
2023-10-23T05:25:28.675Z,-68
2023-10-23T05:27:55.321Z,-68
2023-10-23T05:30:22.008Z,-68
2023-10-23T05:32:48.828Z,-69
2023-10-23T05:35:16.257Z,-69
2023-10-23T05:37:42.985Z,-68
2023-10-23T05:40:09.978Z,-67
2023-10-23T05:42:36.650Z,-67
2023-10-23T05:45:04.438Z,-68
2023-10-23T05:47:31.309Z,-67
2023-10-23T05:49:58.016Z,-67
2023-10-23T05:52:24.668Z,-68
2023-10-23T05:54:51.322Z,-68
2023-10-23T05:57:17.987Z,-67
2023-10-23T05:59:44.620Z,-68
2023-10-23T06:02:13.958Z,-68
2023-10-23T06:04:45.513Z,-68
2023-10-23T06:07:13.832Z,-68
2023-10-23T06:09:41.141Z,-68
2023-10-23T06:12:08.278Z,-68
2023-10-23T06:14:34.908Z,-67
2023-10-23T06:17:01.505Z,-67
2023-10-23T06:19:28.323Z,-67
2023-10-23T06:21:55.002Z,-67
2023-10-23T06:24:21.690Z,-68
2023-10-23T06:26:48.304Z,-67
2023-10-23T06:29:14.968Z,-68
2023-10-23T06:31:41.625Z,-68
2023-10-23T06:34:08.334Z,-68
2023-10-23T06:36:35.016Z,-67
2023-10-23T06:39:01.846Z,-67
2023-10-23T06:41:28.533Z,-68
2023-10-23T06:43:55.217Z,-67
2023-10-23T06:46:21.879Z,-68
2023-10-23T06:48:48.660Z,-67
2023-10-23T06:51:15.378Z,-70
2023-10-23T06:53:42.131Z,-68
2023-10-23T06:56:11.608Z,-68
2023-10-23T06:58:38.295Z,-67
2023-10-23T07:01:11.368Z,-68
2023-10-23T07:03:38.390Z,-67
2023-10-23T07:06:07.131Z,-68
2023-10-23T07:08:34.347Z,-67
2023-10-23T07:11:03.659Z,-67
2023-10-23T07:13:30.329Z,-67
2023-10-23T07:15:57.193Z,-67
2023-10-23T07:18:25.156Z,-66
2023-10-23T07:20:57.360Z,-66
2023-10-23T07:23:24.406Z,-66
2023-10-23T07:26:23.616Z,-66
2023-10-23T07:28:51.471Z,-66
2023-10-23T07:31:18.439Z,-66
2023-10-23T07:33:45.158Z,-66
2023-10-23T07:36:13.607Z,-65
2023-10-23T07:38:42.915Z,-66
2023-10-23T07:41:10.827Z,-67
2023-10-23T07:43:37.454Z,-67
2023-10-23T07:46:16.774Z,-67
2023-10-23T07:48:45.230Z,-67
2023-10-23T07:51:12.242Z,-66
2023-10-23T07:53:39.131Z,-66
2023-10-23T07:56:06.356Z,-66
2023-10-23T07:58:33.361Z,-66
2023-10-23T08:01:07.848Z,-66
2023-10-23T08:03:35.674Z,-67
2023-10-23T08:06:07.504Z,-66
2023-10-23T08:08:36.562Z,-66
2023-10-23T08:11:05.124Z,-66
2023-10-23T08:13:32.261Z,-79
2023-10-23T08:16:00.795Z,-80
2023-10-23T08:18:38.099Z,-79
2023-10-23T08:21:14.439Z,-80
2023-10-23T08:23:42.600Z,-80
2023-10-23T08:26:09.648Z,-80
2023-10-23T08:28:54.215Z,-79
2023-10-23T08:31:34.976Z,-80
2023-10-23T08:34:06.332Z,-80
2023-10-23T08:36:34.143Z,-79
2023-10-23T08:39:02.138Z,-81
2023-10-23T08:41:28.947Z,-79
2023-10-23T08:43:58.214Z,-80
2023-10-23T08:46:33.534Z,-79
2023-10-23T08:49:05.186Z,-80
2023-10-23T08:51:35.057Z,-80
2023-10-23T08:54:12.391Z,-80
2023-10-23T08:56:42.643Z,-80
2023-10-23T08:59:15.528Z,-80
2023-10-23T09:01:42.695Z,-80
2023-10-23T09:04:12.470Z,-80
2023-10-23T09:06:40.198Z,-80
2023-10-23T09:09:07.414Z,-80
2023-10-23T09:11:45.663Z,-81
2023-10-23T09:14:26.397Z,-80
2023-10-23T09:16:55.227Z,-79
2023-10-23T09:19:26.558Z,-80
2023-10-23T09:21:59.276Z,-79
2023-10-23T09:24:26.483Z,-79
2023-10-23T09:26:53.624Z,-80
2023-10-23T09:29:27.873Z,-79
2023-10-23T09:31:56.498Z,-79
2023-10-23T09:34:23.661Z,-79
2023-10-23T09:36:51.822Z,-81
2023-10-23T09:39:19.898Z,-79
2023-10-23T09:41:47.404Z,-80
2023-10-23T09:44:15.818Z,-80
2023-10-23T09:46:43.790Z,-79
2023-10-23T09:49:13.037Z,-79
2023-10-23T09:51:41.410Z,-80
2023-10-23T09:54:21.562Z,-80
2023-10-23T09:56:50.521Z,-80
2023-10-23T09:59:26.535Z,-79
2023-10-23T10:01:59.054Z,-80
2023-10-23T10:04:41.170Z,-80
2023-10-23T10:07:27.658Z,-81
2023-10-23T10:09:55.941Z,-80
2023-10-23T10:12:24.828Z,-80
2023-10-23T10:14:54.188Z,-81
2023-10-23T10:17:21.825Z,-82
2023-10-23T10:19:50.845Z,-82
2023-10-23T10:22:25.330Z,-82
2023-10-23T10:24:53.872Z,-82
2023-10-23T10:27:21.729Z,-81
2023-10-23T10:29:48.458Z,-80
2023-10-23T10:32:15.186Z,-81
2023-10-23T10:34:57.144Z,-81
2023-10-23T10:37:28.007Z,-81
2023-10-23T10:39:57.811Z,-82
2023-10-23T10:42:26.948Z,-80
2023-10-23T10:44:54.384Z,-80
2023-10-23T10:47:22.738Z,-81
2023-10-23T10:49:52.065Z,-81
2023-10-23T10:52:29.899Z,-81
2023-10-23T10:54:57.161Z,-80
2023-10-23T10:57:23.896Z,-82
2023-10-23T10:59:59.197Z,-82
2023-10-23T11:02:26.508Z,-81
2023-10-23T11:04:53.378Z,-80
2023-10-23T11:07:24.764Z,-81
2023-10-23T11:09:52.473Z,-82
2023-10-23T11:12:20.057Z,-81
2023-10-23T11:14:49.638Z,-81
2023-10-23T11:17:17.387Z,-81
2023-10-23T11:19:51.617Z,-83
2023-10-23T11:22:23.345Z,-81
2023-10-23T11:24:50.371Z,-81
2023-10-23T11:27:17.241Z,-80
2023-10-23T11:29:48.421Z,-82
2023-10-23T11:32:16.759Z,-81
2023-10-23T11:34:44.684Z,-82
2023-10-23T11:37:12.692Z,-82
2023-10-23T11:39:43.746Z,-80
2023-10-23T11:42:12.376Z,-82
2023-10-23T11:44:41.264Z,-81
2023-10-23T11:47:09.421Z,-81
2023-10-23T11:49:36.344Z,-81
2023-10-23T11:52:06.467Z,-81
2023-10-23T11:54:33.171Z,-81
2023-10-23T11:57:00.354Z,-81
2023-10-23T11:59:27.761Z,-79
2023-10-23T12:01:58.156Z,-82
2023-10-23T12:04:25.016Z,-81
2023-10-23T12:06:51.937Z,-81
2023-10-23T12:09:18.741Z,-83
2023-10-23T12:11:45.605Z,-83
2023-10-23T12:14:12.336Z,-81
2023-10-23T12:16:39.156Z,-82
2023-10-23T12:19:05.949Z,-81
2023-10-23T12:21:33.460Z,-83
2023-10-23T12:24:00.152Z,-80
2023-10-23T12:26:27.233Z,-81
2023-10-23T12:28:54.063Z,-83
2023-10-23T12:31:22.764Z,-82
2023-10-23T12:33:51.527Z,-81
2023-10-23T12:36:18.409Z,-82
2023-10-23T12:38:45.190Z,-81
2023-10-23T12:41:12.044Z,-81
2023-10-23T12:43:39.158Z,-81
2023-10-23T12:46:05.921Z,-81
2023-10-23T12:48:32.766Z,-82
2023-10-23T12:51:02.039Z,-80
2023-10-23T12:53:28.916Z,-81
2023-10-23T12:55:55.590Z,-81
2023-10-23T12:58:22.402Z,-80
2023-10-23T13:00:49.198Z,-80
2023-10-23T13:03:16.084Z,-82
2023-10-23T13:05:42.786Z,-81
2023-10-23T13:08:09.482Z,-79
2023-10-23T13:10:36.289Z,-81
2023-10-23T13:13:03.361Z,-81
2023-10-23T13:15:30.191Z,-81
2023-10-23T13:17:57.676Z,-81
2023-10-23T13:21:29.563Z,-82
2023-10-23T13:23:11.343Z,-81
2023-10-23T13:25:39.533Z,-78
2023-10-23T13:28:06.244Z,-81
2023-10-23T13:30:33.211Z,-82
2023-10-23T13:33:00.496Z,-80
2023-10-23T13:35:27.481Z,-82
2023-10-23T13:37:54.223Z,-82
2023-10-23T13:40:20.979Z,-81
2023-10-23T13:42:47.884Z,-82
2023-10-23T13:45:17.449Z,-80
2023-10-23T13:47:44.916Z,-80
2023-10-23T13:50:11.686Z,-82
2023-10-23T13:52:38.422Z,-81
2023-10-23T13:55:05.621Z,-82
2023-10-23T13:57:32.406Z,-81
2023-10-23T13:59:59.109Z,-82
2023-10-23T14:02:25.937Z,-80
2023-10-23T14:04:52.768Z,-81
2023-10-23T14:07:19.694Z,-81
2023-10-23T14:09:49.039Z,-83
2023-10-23T14:12:17.935Z,-80
2023-10-23T14:14:44.983Z,-85
2023-10-23T14:17:11.880Z,-83
2023-10-23T14:19:48.078Z,-82
2023-10-23T14:22:18.484Z,-84
2023-10-23T14:24:47.096Z,-85
2023-10-23T14:27:13.796Z,-82
2023-10-23T14:29:41.171Z,-82
2023-10-23T14:32:08.066Z,-79
2023-10-23T14:34:34.838Z,-80
2023-10-23T14:37:01.676Z,-81
2023-10-23T14:39:28.499Z,-81
2023-10-23T14:41:55.782Z,-79
2023-10-23T14:44:25.091Z,-84
2023-10-23T14:46:53.009Z,-83
2023-10-23T14:49:20.284Z,-81
2023-10-23T14:51:47.112Z,-80
2023-10-23T14:54:13.873Z,-81
2023-10-23T14:56:40.635Z,-80
2023-10-23T14:59:07.378Z,-81
2023-10-23T15:01:34.584Z,-81
2023-10-23T15:04:01.953Z,-79
2023-10-23T15:06:28.916Z,-82
2023-10-23T15:08:55.928Z,-80
2023-10-23T15:11:26.410Z,-82
2023-10-23T15:13:57.068Z,-79
2023-10-23T15:16:23.974Z,-82
2023-10-23T15:18:53.666Z,-80
2023-10-23T15:21:20.492Z,-80
2023-10-23T15:23:47.319Z,-79
2023-10-23T15:26:14.044Z,-80
2023-10-23T15:28:41.672Z,-79
2023-10-23T15:31:08.738Z,-80
2023-10-23T15:33:37.906Z,-79
2023-10-23T15:36:06.102Z,-81
2023-10-23T15:38:36.745Z,-80
2023-10-23T15:41:09.186Z,-82
2023-10-23T15:43:38.049Z,-80
2023-10-23T15:46:05.856Z,-80
2023-10-23T15:48:32.614Z,-80
2023-10-23T15:50:59.979Z,-80
2023-10-23T15:53:28.298Z,-80
2023-10-23T15:55:56.247Z,-81
2023-10-23T15:58:23.938Z,-79
2023-10-23T16:00:55.607Z,-80
2023-10-23T16:03:23.436Z,-80
2023-10-23T16:05:51.745Z,-80
2023-10-23T16:08:18.950Z,-81
2023-10-23T16:10:51.387Z,-80
2023-10-23T16:13:18.965Z,-80
2023-10-23T16:15:48.271Z,-80
2023-10-23T16:18:17.094Z,-80
2023-10-23T16:20:44.829Z,-79
2023-10-23T16:23:12.739Z,-78
2023-10-23T16:25:43.316Z,-81
2023-10-23T16:28:11.803Z,-79
2023-10-23T16:30:42.512Z,-80
2023-10-23T16:33:10.410Z,-80
2023-10-23T16:35:37.918Z,-81
2023-10-23T16:38:05.130Z,-80
2023-10-23T16:40:34.806Z,-81
2023-10-23T16:43:02.172Z,-81
2023-10-23T16:45:29.544Z,-80
2023-10-23T16:47:57.397Z,-81
2023-10-23T16:50:25.560Z,-81
2023-10-23T16:52:52.560Z,-81
2023-10-23T16:55:19.466Z,-81
2023-10-23T16:57:46.204Z,-81
2023-10-23T17:00:15.215Z,-81
2023-10-23T17:02:42.217Z,-80
2023-10-23T17:05:13.015Z,-81
2023-10-23T17:07:40.749Z,-79
2023-10-23T17:10:08.238Z,-82
2023-10-23T17:12:35.442Z,-82
2023-10-23T17:15:03.726Z,-80
2023-10-23T17:17:30.633Z,-80
2023-10-23T17:19:57.528Z,-81
2023-10-23T17:22:24.314Z,-81
2023-10-23T17:24:51.518Z,-81
2023-10-23T17:27:18.338Z,-81
2023-10-23T17:29:45.320Z,-81
2023-10-23T17:32:12.277Z,-81
2023-10-23T17:34:39.158Z,-66
2023-10-23T17:37:05.903Z,-66
2023-10-23T17:39:33.065Z,-65
2023-10-23T17:41:59.735Z,-65
2023-10-23T17:44:26.451Z,-68
2023-10-23T17:46:55.061Z,-69
2023-10-23T17:49:23.411Z,-69
2023-10-23T17:51:50.915Z,-69
2023-10-23T17:54:17.837Z,-69
2023-10-23T17:56:44.555Z,-68
2023-10-23T17:59:11.494Z,-66
2023-10-23T18:01:40.833Z,-66
2023-10-23T18:04:09.930Z,-66
2023-10-23T18:06:38.167Z,-67
2023-10-23T18:09:05.813Z,-67
2023-10-23T18:11:33.462Z,-66
2023-10-23T18:14:00.376Z,-66
2023-10-23T18:16:27.200Z,-67
2023-10-23T18:18:54.063Z,-68
2023-10-23T18:21:20.690Z,-66
2023-10-23T18:23:47.298Z,-66
2023-10-23T18:26:13.884Z,-66
2023-10-23T18:28:40.583Z,-67
2023-10-23T18:31:07.427Z,-67
2023-10-23T18:33:34.183Z,-65
2023-10-23T18:36:05.614Z,-66
2023-10-23T18:38:32.664Z,-67
2023-10-23T18:40:59.842Z,-65
2023-10-23T18:43:28.754Z,-65
2023-10-23T18:45:56.712Z,-68
2023-10-23T18:51:51.976Z,-66
2023-10-23T18:54:19.514Z,-66
2023-10-23T18:56:46.849Z,-66
2023-10-23T18:59:14.156Z,-65
2023-10-23T19:01:41.416Z,-66
2023-10-23T19:04:08.347Z,-66
2023-10-23T19:06:36.353Z,-66
2023-10-23T19:09:05.557Z,-66
2023-10-23T19:11:32.370Z,-65
2023-10-23T19:13:59.036Z,-65
2023-10-23T19:16:25.688Z,-65
2023-10-23T19:18:52.592Z,-66
2023-10-23T19:21:19.259Z,-66
2023-10-23T19:23:46.250Z,-65
2023-10-23T19:26:14.326Z,-66
2023-10-23T19:28:40.974Z,-65
2023-10-23T19:31:20.822Z,-65
2023-10-23T19:33:48.355Z,-65
2023-10-23T19:36:15.633Z,-65
2023-10-23T19:38:43.081Z,-65
2023-10-23T19:41:13.290Z,-65
2023-10-23T19:43:44.875Z,-66
2023-10-23T19:46:14.101Z,-66
2023-10-23T19:48:41.788Z,-66
2023-10-23T19:51:10.350Z,-66
2023-10-23T19:53:41.405Z,-66
2023-10-23T19:56:18.540Z,-66
2023-10-23T19:58:45.587Z,-66
2023-10-23T20:01:12.289Z,-66
2023-10-23T20:03:39.176Z,-66
2023-10-23T20:06:05.973Z,-66
2023-10-23T20:08:32.673Z,-66
2023-10-23T20:10:59.319Z,-66
2023-10-23T20:13:26.145Z,-65
2023-10-23T20:15:52.780Z,-65
2023-10-23T20:18:19.449Z,-65
2023-10-23T20:20:54.345Z,-65
2023-10-23T20:23:21.121Z,-64
2023-10-23T20:25:48.398Z,-65
2023-10-23T20:28:15.061Z,-64
2023-10-23T20:30:41.832Z,-66
2023-10-23T20:33:11.437Z,-65
2023-10-23T20:35:38.428Z,-66
2023-10-23T20:38:05.418Z,-65
2023-10-23T20:40:32.118Z,-65
2023-10-23T20:42:58.840Z,-68
2023-10-23T20:45:25.553Z,-66
2023-10-23T20:47:52.179Z,-67
2023-10-23T20:50:20.989Z,-68
2023-10-23T20:52:47.657Z,-68
2023-10-23T20:55:15.483Z,-68
2023-10-23T20:57:42.363Z,-68
2023-10-23T21:00:09.748Z,-68
2023-10-23T21:02:37.292Z,-68
2023-10-23T21:05:05.172Z,-68
2023-10-23T21:07:31.773Z,-68
2023-10-23T21:09:58.429Z,-65
2023-10-23T21:12:25.164Z,-65
2023-10-23T21:14:51.871Z,-66
2023-10-23T21:17:19.913Z,-66
2023-10-23T21:19:46.884Z,-65
2023-10-23T21:22:13.676Z,-65
2023-10-23T21:24:40.309Z,-64
2023-10-23T21:27:07.695Z,-64
2023-10-23T21:29:34.407Z,-64
2023-10-23T21:32:01.963Z,-66
2023-10-23T21:34:29.113Z,-64
2023-10-23T21:36:55.848Z,-66
2023-10-23T21:39:22.459Z,-65
2023-10-23T21:41:49.170Z,-65
2023-10-23T21:44:15.902Z,-66
2023-10-23T21:46:42.707Z,-68
2023-10-23T21:49:11.754Z,-68
2023-10-23T21:51:39.076Z,-67
2023-10-23T21:54:06.357Z,-69
2023-10-23T21:57:18.878Z,-68
2023-10-23T21:59:21.114Z,-66
2023-10-23T22:01:49.663Z,-67
2023-10-23T22:04:18.818Z,-66
2023-10-23T22:06:46.402Z,-66
2023-10-23T22:09:14.716Z,-67
2023-10-23T22:11:41.674Z,-66
2023-10-23T22:14:08.841Z,-67
2023-10-23T22:16:35.680Z,-68
2023-10-23T22:19:02.348Z,-67
2023-10-23T22:21:29.009Z,-66
2023-10-23T22:23:55.712Z,-66
2023-10-23T22:26:22.328Z,-67
2023-10-23T22:28:48.950Z,-67
2023-10-23T22:31:15.644Z,-67
2023-10-23T22:33:42.348Z,-67
2023-10-23T22:36:09.013Z,-67
2023-10-23T22:38:35.662Z,-67
2023-10-23T22:41:05.262Z,-67
2023-10-23T22:43:32.263Z,-67
2023-10-23T22:46:02.964Z,-67
2023-10-23T22:48:30.975Z,-67
2023-10-23T22:50:57.900Z,-67
2023-10-23T22:53:25.389Z,-67
2023-10-23T22:55:54.883Z,-67
2023-10-23T22:58:31.282Z,-67
2023-10-23T23:00:59.669Z,-67
2023-10-23T23:03:26.788Z,-67
2023-10-23T23:05:55.328Z,-67
2023-10-23T23:08:22.752Z,-67
2023-10-23T23:10:49.595Z,-68
2023-10-23T23:13:16.514Z,-68
2023-10-23T23:15:46.240Z,-68
2023-10-23T23:18:15.346Z,-68
2023-10-23T23:20:44.502Z,-69
2023-10-23T23:23:11.212Z,-69
2023-10-23T23:25:37.955Z,-69
2023-10-23T23:28:04.956Z,-69
2023-10-23T23:30:32.659Z,-68
2023-10-23T23:32:59.356Z,-68
2023-10-23T23:35:26.043Z,-68
2023-10-23T23:37:53.268Z,-68
2023-10-23T23:40:19.931Z,-68
2023-10-23T23:42:46.551Z,-68
2023-10-23T23:45:13.237Z,-66
2023-10-23T23:47:39.898Z,-66
2023-10-23T23:50:07.044Z,-66
2023-10-23T23:52:33.833Z,-66
2023-10-23T23:55:00.558Z,-67
2023-10-23T23:57:29.255Z,-66
2023-10-23T23:59:55.963Z,-67
